sensor_id;sensor_type;location;lat;lon;timestamp;P1;durP1;ratioP1;P2;durP2;ratioP2
71856;SDS011;59712;46.980;28.882;2022-08-30T00:01:26;12.23;;;6.13;;
71856;SDS011;59712;46.980;28.882;2022-08-30T00:03:56;11.70;;;6.47;;
71856;SDS011;59712;46.980;28.882;2022-08-30T00:06:24;17.55;;;5.82;;
71856;SDS011;59712;46.980;28.882;2022-08-30T00:08:54;14.80;;;6.57;;
71856;SDS011;59712;46.980;28.882;2022-08-30T00:11:23;11.52;;;6.07;;
71856;SDS011;59712;46.980;28.882;2022-08-30T00:13:54;16.73;;;7.60;;
71856;SDS011;59712;46.980;28.882;2022-08-30T00:16:22;12.93;;;6.25;;
71856;SDS011;59712;46.980;28.882;2022-08-30T00:18:50;15.77;;;6.38;;
71856;SDS011;59712;46.980;28.882;2022-08-30T00:21:17;9.70;;;6.13;;
71856;SDS011;59712;46.980;28.882;2022-08-30T00:23:44;12.38;;;5.90;;
71856;SDS011;59712;46.980;28.882;2022-08-30T00:26:12;13.77;;;5.95;;
71856;SDS011;59712;46.980;28.882;2022-08-30T00:28:39;15.73;;;5.93;;
71856;SDS011;59712;46.980;28.882;2022-08-30T00:31:06;16.40;;;6.28;;
71856;SDS011;59712;46.980;28.882;2022-08-30T00:33:34;11.90;;;6.25;;
71856;SDS011;59712;46.980;28.882;2022-08-30T00:36:01;12.23;;;6.55;;
71856;SDS011;59712;46.980;28.882;2022-08-30T00:38:29;13.07;;;6.10;;
71856;SDS011;59712;46.980;28.882;2022-08-30T00:40:56;12.48;;;7.20;;
71856;SDS011;59712;46.980;28.882;2022-08-30T00:43:27;12.57;;;7.18;;
71856;SDS011;59712;46.980;28.882;2022-08-30T00:45:56;13.82;;;6.35;;
71856;SDS011;59712;46.980;28.882;2022-08-30T00:48:25;18.13;;;7.78;;
71856;SDS011;59712;46.980;28.882;2022-08-30T00:50:54;14.93;;;6.13;;
71856;SDS011;59712;46.980;28.882;2022-08-30T00:53:31;14.65;;;6.60;;
71856;SDS011;59712;46.980;28.882;2022-08-30T00:56:02;16.30;;;6.80;;
71856;SDS011;59712;46.980;28.882;2022-08-30T00:58:34;14.88;;;7.93;;
71856;SDS011;59712;46.980;28.882;2022-08-30T01:01:05;15.23;;;7.95;;
71856;SDS011;59712;46.980;28.882;2022-08-30T01:03:33;16.63;;;7.10;;
71856;SDS011;59712;46.980;28.882;2022-08-30T01:06:02;13.55;;;6.90;;
71856;SDS011;59712;46.980;28.882;2022-08-30T01:08:31;17.77;;;6.60;;
71856;SDS011;59712;46.980;28.882;2022-08-30T01:10:58;15.95;;;6.88;;
71856;SDS011;59712;46.980;28.882;2022-08-30T01:13:26;16.88;;;7.38;;
71856;SDS011;59712;46.980;28.882;2022-08-30T01:15:54;18.50;;;7.70;;
71856;SDS011;59712;46.980;28.882;2022-08-30T01:18:22;19.00;;;8.25;;
71856;SDS011;59712;46.980;28.882;2022-08-30T01:23:45;22.88;;;8.65;;
71856;SDS011;59712;46.980;28.882;2022-08-30T01:26:16;18.70;;;8.05;;
71856;SDS011;59712;46.980;28.882;2022-08-30T01:28:50;16.27;;;7.57;;
71856;SDS011;59712;46.980;28.882;2022-08-30T01:31:20;17.25;;;7.82;;
71856;SDS011;59712;46.980;28.882;2022-08-30T01:33:48;14.98;;;8.05;;
71856;SDS011;59712;46.980;28.882;2022-08-30T01:36:16;13.75;;;6.95;;
71856;SDS011;59712;46.980;28.882;2022-08-30T01:38:53;12.80;;;7.30;;
71856;SDS011;59712;46.980;28.882;2022-08-30T01:43:58;26.23;;;9.70;;
71856;SDS011;59712;46.980;28.882;2022-08-30T01:46:30;21.00;;;10.38;;
71856;SDS011;59712;46.980;28.882;2022-08-30T01:49:03;24.23;;;9.65;;
71856;SDS011;59712;46.980;28.882;2022-08-30T01:51:33;27.33;;;9.05;;
71856;SDS011;59712;46.980;28.882;2022-08-30T01:54:00;12.43;;;8.45;;
71856;SDS011;59712;46.980;28.882;2022-08-30T01:56:27;15.20;;;8.77;;
71856;SDS011;59712;46.980;28.882;2022-08-30T01:58:56;20.02;;;7.95;;
71856;SDS011;59712;46.980;28.882;2022-08-30T02:01:28;14.40;;;7.60;;
71856;SDS011;59712;46.980;28.882;2022-08-30T02:03:58;13.70;;;7.45;;
71856;SDS011;59712;46.980;28.882;2022-08-30T02:06:26;16.38;;;7.68;;
71856;SDS011;59712;46.980;28.882;2022-08-30T02:08:53;20.60;;;8.50;;
71856;SDS011;59712;46.980;28.882;2022-08-30T02:11:20;17.77;;;8.23;;
71856;SDS011;59712;46.980;28.882;2022-08-30T02:13:56;17.40;;;7.80;;
71856;SDS011;59712;46.980;28.882;2022-08-30T02:16:25;14.48;;;7.68;;
71856;SDS011;59712;46.980;28.882;2022-08-30T02:18:54;18.67;;;8.10;;
71856;SDS011;59712;46.980;28.882;2022-08-30T02:21:23;12.70;;;7.35;;
71856;SDS011;59712;46.980;28.882;2022-08-30T02:23:52;17.02;;;7.95;;
71856;SDS011;59712;46.980;28.882;2022-08-30T02:26:20;19.40;;;9.02;;
71856;SDS011;59712;46.980;28.882;2022-08-30T02:28:53;15.70;;;8.93;;
71856;SDS011;59712;46.980;28.882;2022-08-30T02:31:24;13.35;;;7.80;;
71856;SDS011;59712;46.980;28.882;2022-08-30T02:33:52;12.63;;;9.10;;
71856;SDS011;59712;46.980;28.882;2022-08-30T02:36:26;15.80;;;8.88;;
71856;SDS011;59712;46.980;28.882;2022-08-30T02:38:55;18.20;;;8.10;;
71856;SDS011;59712;46.980;28.882;2022-08-30T02:41:22;14.93;;;8.60;;
71856;SDS011;59712;46.980;28.882;2022-08-30T02:43:51;14.57;;;8.07;;
71856;SDS011;59712;46.980;28.882;2022-08-30T02:46:18;18.05;;;8.55;;
71856;SDS011;59712;46.980;28.882;2022-08-30T02:48:45;16.85;;;8.13;;
71856;SDS011;59712;46.980;28.882;2022-08-30T02:51:13;17.88;;;8.90;;
71856;SDS011;59712;46.980;28.882;2022-08-30T02:53:41;13.82;;;7.82;;
71856;SDS011;59712;46.980;28.882;2022-08-30T02:56:09;16.00;;;9.10;;
71856;SDS011;59712;46.980;28.882;2022-08-30T02:58:39;16.42;;;8.07;;
71856;SDS011;59712;46.980;28.882;2022-08-30T03:01:12;20.10;;;9.55;;
71856;SDS011;59712;46.980;28.882;2022-08-30T03:03:49;17.83;;;8.43;;
71856;SDS011;59712;46.980;28.882;2022-08-30T03:06:17;16.95;;;8.23;;
71856;SDS011;59712;46.980;28.882;2022-08-30T03:08:44;15.27;;;8.82;;
71856;SDS011;59712;46.980;28.882;2022-08-30T03:11:13;16.40;;;9.02;;
71856;SDS011;59712;46.980;28.882;2022-08-30T03:13:44;16.10;;;8.40;;
71856;SDS011;59712;46.980;28.882;2022-08-30T03:16:12;16.35;;;9.07;;
71856;SDS011;59712;46.980;28.882;2022-08-30T03:18:43;18.45;;;10.07;;
71856;SDS011;59712;46.980;28.882;2022-08-30T03:21:25;23.77;;;9.93;;
71856;SDS011;59712;46.980;28.882;2022-08-30T03:23:54;14.65;;;8.57;;
71856;SDS011;59712;46.980;28.882;2022-08-30T03:26:23;12.98;;;8.65;;
71856;SDS011;59712;46.980;28.882;2022-08-30T03:28:51;13.48;;;8.88;;
71856;SDS011;59712;46.980;28.882;2022-08-30T03:31:27;17.55;;;8.75;;
71856;SDS011;59712;46.980;28.882;2022-08-30T03:34:00;18.60;;;9.07;;
71856;SDS011;59712;46.980;28.882;2022-08-30T03:36:28;15.88;;;9.85;;
71856;SDS011;59712;46.980;28.882;2022-08-30T03:38:55;27.60;;;11.60;;
71856;SDS011;59712;46.980;28.882;2022-08-30T03:41:23;16.27;;;8.82;;
71856;SDS011;59712;46.980;28.882;2022-08-30T03:43:53;20.77;;;11.60;;
71856;SDS011;59712;46.980;28.882;2022-08-30T03:46:25;22.38;;;12.20;;
71856;SDS011;59712;46.980;28.882;2022-08-30T03:48:55;18.45;;;9.18;;
71856;SDS011;59712;46.980;28.882;2022-08-30T03:51:23;28.00;;;11.13;;
71856;SDS011;59712;46.980;28.882;2022-08-30T03:53:51;13.40;;;8.98;;
71856;SDS011;59712;46.980;28.882;2022-08-30T03:56:20;21.95;;;9.38;;
71856;SDS011;59712;46.980;28.882;2022-08-30T03:58:47;25.60;;;11.95;;
71856;SDS011;59712;46.980;28.882;2022-08-30T04:01:16;18.60;;;8.85;;
71856;SDS011;59712;46.980;28.882;2022-08-30T04:03:45;21.63;;;9.30;;
71856;SDS011;59712;46.980;28.882;2022-08-30T04:06:12;17.65;;;10.50;;
71856;SDS011;59712;46.980;28.882;2022-08-30T04:09:01;19.98;;;9.15;;
71856;SDS011;59712;46.980;28.882;2022-08-30T04:11:29;21.92;;;9.10;;
71856;SDS011;59712;46.980;28.882;2022-08-30T04:13:58;17.10;;;8.43;;
71856;SDS011;59712;46.980;28.882;2022-08-30T04:16:28;15.32;;;7.70;;
71856;SDS011;59712;46.980;28.882;2022-08-30T04:18:55;16.45;;;8.20;;
71856;SDS011;59712;46.980;28.882;2022-08-30T04:22:06;19.42;;;8.07;;
71856;SDS011;59712;46.980;28.882;2022-08-30T04:24:47;14.40;;;7.60;;
71856;SDS011;59712;46.980;28.882;2022-08-30T04:27:43;19.83;;;8.05;;
71856;SDS011;59712;46.980;28.882;2022-08-30T04:30:43;14.32;;;8.13;;
71856;SDS011;59712;46.980;28.882;2022-08-30T04:33:20;14.63;;;8.48;;
71856;SDS011;59712;46.980;28.882;2022-08-30T04:36:11;15.38;;;8.13;;
71856;SDS011;59712;46.980;28.882;2022-08-30T04:38:40;14.02;;;8.45;;
71856;SDS011;59712;46.980;28.882;2022-08-30T04:41:19;16.85;;;9.55;;
71856;SDS011;59712;46.980;28.882;2022-08-30T04:43:49;18.27;;;8.70;;
71856;SDS011;59712;46.980;28.882;2022-08-30T04:46:17;16.00;;;7.53;;
71856;SDS011;59712;46.980;28.882;2022-08-30T04:48:45;20.50;;;7.63;;
71856;SDS011;59712;46.980;28.882;2022-08-30T04:54:37;13.48;;;6.05;;
71856;SDS011;59712;46.980;28.882;2022-08-30T04:57:06;12.45;;;6.90;;
71856;SDS011;59712;46.980;28.882;2022-08-30T05:02:09;17.85;;;8.60;;
71856;SDS011;59712;46.980;28.882;2022-08-30T05:04:40;17.20;;;8.40;;
71856;SDS011;59712;46.980;28.882;2022-08-30T05:07:32;19.30;;;8.57;;
71856;SDS011;59712;46.980;28.882;2022-08-30T05:10:00;17.92;;;8.68;;
71856;SDS011;59712;46.980;28.882;2022-08-30T05:12:27;19.52;;;9.43;;
71856;SDS011;59712;46.980;28.882;2022-08-30T05:14:54;15.48;;;7.90;;
71856;SDS011;59712;46.980;28.882;2022-08-30T05:17:24;23.38;;;9.15;;
71856;SDS011;59712;46.980;28.882;2022-08-30T05:19:51;13.43;;;8.35;;
71856;SDS011;59712;46.980;28.882;2022-08-30T05:22:18;18.52;;;9.18;;
71856;SDS011;59712;46.980;28.882;2022-08-30T05:24:45;18.45;;;9.38;;
71856;SDS011;59712;46.980;28.882;2022-08-30T05:27:12;17.40;;;8.20;;
71856;SDS011;59712;46.980;28.882;2022-08-30T05:29:40;19.33;;;9.82;;
71856;SDS011;59712;46.980;28.882;2022-08-30T05:32:07;19.05;;;9.60;;
71856;SDS011;59712;46.980;28.882;2022-08-30T05:34:36;27.52;;;11.32;;
71856;SDS011;59712;46.980;28.882;2022-08-30T05:37:04;23.33;;;9.50;;
71856;SDS011;59712;46.980;28.882;2022-08-30T05:39:31;22.33;;;9.55;;
71856;SDS011;59712;46.980;28.882;2022-08-30T05:42:17;16.38;;;8.07;;
71856;SDS011;59712;46.980;28.882;2022-08-30T05:44:45;16.98;;;8.73;;
71856;SDS011;59712;46.980;28.882;2022-08-30T05:47:17;16.08;;;8.50;;
71856;SDS011;59712;46.980;28.882;2022-08-30T05:49:47;21.05;;;10.65;;
71856;SDS011;59712;46.980;28.882;2022-08-30T05:54:44;23.70;;;10.40;;
71856;SDS011;59712;46.980;28.882;2022-08-30T05:57:12;16.83;;;9.95;;
71856;SDS011;59712;46.980;28.882;2022-08-30T05:59:40;15.50;;;8.85;;
71856;SDS011;59712;46.980;28.882;2022-08-30T06:02:08;22.40;;;10.27;;
71856;SDS011;59712;46.980;28.882;2022-08-30T06:04:50;19.02;;;9.38;;
71856;SDS011;59712;46.980;28.882;2022-08-30T06:07:35;22.73;;;10.48;;
71856;SDS011;59712;46.980;28.882;2022-08-30T06:10:04;23.92;;;11.07;;
71856;SDS011;59712;46.980;28.882;2022-08-30T06:12:32;23.45;;;11.30;;
71856;SDS011;59712;46.980;28.882;2022-08-30T06:15:17;14.52;;;7.93;;
71856;SDS011;59712;46.980;28.882;2022-08-30T06:17:46;10.80;;;6.05;;
71856;SDS011;59712;46.980;28.882;2022-08-30T06:20:15;16.42;;;8.40;;
71856;SDS011;59712;46.980;28.882;2022-08-30T06:22:57;20.05;;;10.65;;
71856;SDS011;59712;46.980;28.882;2022-08-30T06:25:24;15.32;;;8.88;;
71856;SDS011;59712;46.980;28.882;2022-08-30T06:28:07;21.02;;;11.55;;
71856;SDS011;59712;46.980;28.882;2022-08-30T06:30:35;22.30;;;12.75;;
71856;SDS011;59712;46.980;28.882;2022-08-30T06:33:03;22.42;;;12.07;;
71856;SDS011;59712;46.980;28.882;2022-08-30T06:35:31;15.77;;;9.13;;
71856;SDS011;59712;46.980;28.882;2022-08-30T06:38:09;26.25;;;12.48;;
71856;SDS011;59712;46.980;28.882;2022-08-30T06:40:40;19.45;;;13.02;;
71856;SDS011;59712;46.980;28.882;2022-08-30T06:43:10;22.13;;;11.82;;
71856;SDS011;59712;46.980;28.882;2022-08-30T06:45:37;18.13;;;10.93;;
71856;SDS011;59712;46.980;28.882;2022-08-30T06:48:05;16.88;;;9.52;;
71856;SDS011;59712;46.980;28.882;2022-08-30T06:50:35;15.40;;;11.23;;
71856;SDS011;59712;46.980;28.882;2022-08-30T06:53:05;21.88;;;14.85;;
71856;SDS011;59712;46.980;28.882;2022-08-30T06:55:58;18.60;;;9.55;;
71856;SDS011;59712;46.980;28.882;2022-08-30T06:58:48;19.73;;;13.20;;
71856;SDS011;59712;46.980;28.882;2022-08-30T07:01:17;20.15;;;12.95;;
71856;SDS011;59712;46.980;28.882;2022-08-30T07:04:01;20.50;;;13.27;;
71856;SDS011;59712;46.980;28.882;2022-08-30T07:06:31;21.70;;;12.27;;
71856;SDS011;59712;46.980;28.882;2022-08-30T07:08:58;22.00;;;13.15;;
71856;SDS011;59712;46.980;28.882;2022-08-30T07:11:34;19.48;;;11.63;;
71856;SDS011;59712;46.980;28.882;2022-08-30T07:14:07;22.20;;;11.32;;
71856;SDS011;59712;46.980;28.882;2022-08-30T07:16:34;20.73;;;13.18;;
71856;SDS011;59712;46.980;28.882;2022-08-30T07:19:02;16.05;;;11.52;;
71856;SDS011;59712;46.980;28.882;2022-08-30T07:21:32;24.20;;;12.10;;
71856;SDS011;59712;46.980;28.882;2022-08-30T07:24:08;20.20;;;11.40;;
71856;SDS011;59712;46.980;28.882;2022-08-30T07:26:39;24.92;;;12.23;;
71856;SDS011;59712;46.980;28.882;2022-08-30T07:29:13;24.02;;;11.90;;
71856;SDS011;59712;46.980;28.882;2022-08-30T07:31:42;17.50;;;10.88;;
71856;SDS011;59712;46.980;28.882;2022-08-30T07:34:24;16.58;;;10.75;;
71856;SDS011;59712;46.980;28.882;2022-08-30T07:36:56;19.33;;;12.30;;
71856;SDS011;59712;46.980;28.882;2022-08-30T07:39:23;21.60;;;11.20;;
71856;SDS011;59712;46.980;28.882;2022-08-30T07:41:50;27.90;;;12.35;;
71856;SDS011;59712;46.980;28.882;2022-08-30T07:44:18;20.73;;;11.70;;
71856;SDS011;59712;46.980;28.882;2022-08-30T07:46:53;25.77;;;12.70;;
71856;SDS011;59712;46.980;28.882;2022-08-30T07:49:27;21.30;;;13.70;;
71856;SDS011;59712;46.980;28.882;2022-08-30T07:52:05;19.98;;;12.52;;
71856;SDS011;59712;46.980;28.882;2022-08-30T07:54:36;25.45;;;12.30;;
71856;SDS011;59712;46.980;28.882;2022-08-30T07:57:06;20.73;;;12.80;;
71856;SDS011;59712;46.980;28.882;2022-08-30T07:59:49;23.25;;;12.45;;
71856;SDS011;59712;46.980;28.882;2022-08-30T08:02:17;22.77;;;13.82;;
71856;SDS011;59712;46.980;28.882;2022-08-30T08:04:46;16.90;;;11.13;;
71856;SDS011;59712;46.980;28.882;2022-08-30T08:07:47;20.80;;;10.93;;
71856;SDS011;59712;46.980;28.882;2022-08-30T08:10:42;19.25;;;10.95;;
71856;SDS011;59712;46.980;28.882;2022-08-30T08:13:59;20.30;;;11.52;;
71856;SDS011;59712;46.980;28.882;2022-08-30T08:26:32;18.00;;;10.52;;
71856;SDS011;59712;46.980;28.882;2022-08-30T08:29:07;12.48;;;8.50;;
71856;SDS011;59712;46.980;28.882;2022-08-30T08:31:42;12.02;;;8.68;;
71856;SDS011;59712;46.980;28.882;2022-08-30T08:34:12;18.20;;;9.70;;
71856;SDS011;59712;46.980;28.882;2022-08-30T08:36:40;14.20;;;8.77;;
71856;SDS011;59712;46.980;28.882;2022-08-30T08:39:07;16.02;;;9.32;;
71856;SDS011;59712;46.980;28.882;2022-08-30T08:44:18;13.48;;;9.52;;
71856;SDS011;59712;46.980;28.882;2022-08-30T08:49:46;13.93;;;9.20;;
71856;SDS011;59712;46.980;28.882;2022-08-30T08:52:20;21.55;;;10.52;;
71856;SDS011;59712;46.980;28.882;2022-08-30T08:55:21;14.10;;;10.70;;
71856;SDS011;59712;46.980;28.882;2022-08-30T08:57:50;14.75;;;10.80;;
71856;SDS011;59712;46.980;28.882;2022-08-30T09:00:18;11.60;;;7.75;;
71856;SDS011;59712;46.980;28.882;2022-08-30T09:02:56;12.77;;;7.90;;
71856;SDS011;59712;46.980;28.882;2022-08-30T09:05:26;12.10;;;8.88;;
71856;SDS011;59712;46.980;28.882;2022-08-30T09:08:07;15.55;;;8.18;;
71856;SDS011;59712;46.980;28.882;2022-08-30T09:13:17;16.10;;;8.40;;
71856;SDS011;59712;46.980;28.882;2022-08-30T09:15:49;10.77;;;7.45;;
71856;SDS011;59712;46.980;28.882;2022-08-30T09:18:38;15.07;;;9.13;;
71856;SDS011;59712;46.980;28.882;2022-08-30T09:21:19;11.85;;;8.65;;
71856;SDS011;59712;46.980;28.882;2022-08-30T09:23:53;12.27;;;8.77;;
71856;SDS011;59712;46.980;28.882;2022-08-30T09:26:29;11.05;;;9.02;;
71856;SDS011;59712;46.980;28.882;2022-08-30T09:28:58;9.75;;;7.15;;
71856;SDS011;59712;46.980;28.882;2022-08-30T09:31:30;12.65;;;7.88;;
71856;SDS011;59712;46.980;28.882;2022-08-30T09:34:03;11.65;;;7.68;;
71856;SDS011;59712;46.980;28.882;2022-08-30T09:41:48;9.65;;;7.45;;
71856;SDS011;59712;46.980;28.882;2022-08-30T09:44:26;12.65;;;9.05;;
71856;SDS011;59712;46.980;28.882;2022-08-30T09:46:58;12.32;;;8.50;;
71856;SDS011;59712;46.980;28.882;2022-08-30T09:49:28;14.60;;;8.43;;
71856;SDS011;59712;46.980;28.882;2022-08-30T09:54:59;15.02;;;8.88;;
71856;SDS011;59712;46.980;28.882;2022-08-30T10:00:16;15.95;;;9.30;;
71856;SDS011;59712;46.980;28.882;2022-08-30T10:02:59;12.68;;;8.25;;
71856;SDS011;59712;46.980;28.882;2022-08-30T10:06:05;12.98;;;9.57;;
71856;SDS011;59712;46.980;28.882;2022-08-30T10:09:18;9.98;;;8.25;;
71856;SDS011;59712;46.980;28.882;2022-08-30T10:14:28;14.82;;;8.40;;
71856;SDS011;59712;46.980;28.882;2022-08-30T10:17:30;16.23;;;8.60;;
71856;SDS011;59712;46.980;28.882;2022-08-30T10:20:24;15.70;;;8.55;;
71856;SDS011;59712;46.980;28.882;2022-08-30T10:25:47;14.20;;;7.90;;
71856;SDS011;59712;46.980;28.882;2022-08-30T10:31:38;11.88;;;8.25;;
71856;SDS011;59712;46.980;28.882;2022-08-30T10:34:20;10.25;;;7.38;;
71856;SDS011;59712;46.980;28.882;2022-08-30T10:36:53;10.38;;;6.50;;
71856;SDS011;59712;46.980;28.882;2022-08-30T10:39:30;14.20;;;8.95;;
71856;SDS011;59712;46.980;28.882;2022-08-30T10:42:11;13.93;;;9.00;;
71856;SDS011;59712;46.980;28.882;2022-08-30T10:44:45;11.85;;;8.10;;
71856;SDS011;59712;46.980;28.882;2022-08-30T10:50:29;13.45;;;7.80;;
71856;SDS011;59712;46.980;28.882;2022-08-30T10:56:17;8.95;;;7.03;;
71856;SDS011;59712;46.980;28.882;2022-08-30T10:58:58;11.88;;;6.72;;
71856;SDS011;59712;46.980;28.882;2022-08-30T11:13:29;9.77;;;6.60;;
71856;SDS011;59712;46.980;28.882;2022-08-30T11:16:34;13.88;;;7.25;;
71856;SDS011;59712;46.980;28.882;2022-08-30T11:19:35;7.63;;;5.40;;
71856;SDS011;59712;46.980;28.882;2022-08-30T11:22:11;12.35;;;6.65;;
71856;SDS011;59712;46.980;28.882;2022-08-30T11:25:45;12.60;;;6.60;;
71856;SDS011;59712;46.980;28.882;2022-08-30T11:27:52;12.02;;;6.03;;
71856;SDS011;59712;46.980;28.882;2022-08-30T11:39:38;10.38;;;6.82;;
71856;SDS011;59712;46.980;28.882;2022-08-30T11:42:26;9.18;;;5.13;;
71856;SDS011;59712;46.980;28.882;2022-08-30T11:47:59;9.23;;;5.55;;
71856;SDS011;59712;46.980;28.882;2022-08-30T11:50:49;12.27;;;5.35;;
71856;SDS011;59712;46.980;28.882;2022-08-30T11:53:29;8.73;;;5.18;;
71856;SDS011;59712;46.980;28.882;2022-08-30T12:01:51;8.13;;;5.50;;
71856;SDS011;59712;46.980;28.882;2022-08-30T12:12:02;9.23;;;5.43;;
71856;SDS011;59712;46.980;28.882;2022-08-30T12:14:50;14.15;;;6.07;;
71856;SDS011;59712;46.980;28.882;2022-08-30T12:18:03;10.70;;;6.53;;
71856;SDS011;59712;46.980;28.882;2022-08-30T12:20:37;10.50;;;5.70;;
71856;SDS011;59712;46.980;28.882;2022-08-30T12:23:32;6.43;;;4.90;;
71856;SDS011;59712;46.980;28.882;2022-08-30T12:28:36;11.18;;;5.30;;
71856;SDS011;59712;46.980;28.882;2022-08-30T12:31:15;12.75;;;5.60;;
71856;SDS011;59712;46.980;28.882;2022-08-30T12:33:48;12.82;;;6.22;;
71856;SDS011;59712;46.980;28.882;2022-08-30T12:36:31;10.20;;;5.53;;
71856;SDS011;59712;46.980;28.882;2022-08-30T12:39:05;10.93;;;5.22;;
71856;SDS011;59712;46.980;28.882;2022-08-30T12:41:34;10.80;;;5.15;;
71856;SDS011;59712;46.980;28.882;2022-08-30T12:44:14;12.48;;;5.43;;
71856;SDS011;59712;46.980;28.882;2022-08-30T12:46:44;11.85;;;6.03;;
71856;SDS011;59712;46.980;28.882;2022-08-30T12:49:28;9.35;;;4.60;;
71856;SDS011;59712;46.980;28.882;2022-08-30T12:52:15;14.10;;;5.53;;
71856;SDS011;59712;46.980;28.882;2022-08-30T12:55:32;11.18;;;5.40;;
71856;SDS011;59712;46.980;28.882;2022-08-30T12:57:59;10.65;;;5.55;;
71856;SDS011;59712;46.980;28.882;2022-08-30T13:00:36;9.43;;;4.75;;
71856;SDS011;59712;46.980;28.882;2022-08-30T13:05:56;7.53;;;4.13;;
71856;SDS011;59712;46.980;28.882;2022-08-30T13:13:56;11.85;;;6.03;;
71856;SDS011;59712;46.980;28.882;2022-08-30T13:20:18;10.18;;;4.45;;
71856;SDS011;59712;46.980;28.882;2022-08-30T13:23:04;7.93;;;5.13;;
71856;SDS011;59712;46.980;28.882;2022-08-30T13:25:36;11.38;;;5.82;;
71856;SDS011;59712;46.980;28.882;2022-08-30T13:28:05;12.82;;;5.00;;
71856;SDS011;59712;46.980;28.882;2022-08-30T13:30:35;9.10;;;5.90;;
71856;SDS011;59712;46.980;28.882;2022-08-30T13:33:04;9.35;;;6.18;;
71856;SDS011;59712;46.980;28.882;2022-08-30T13:35:31;10.25;;;5.97;;
71856;SDS011;59712;46.980;28.882;2022-08-30T13:37:59;12.13;;;6.35;;
71856;SDS011;59712;46.980;28.882;2022-08-30T13:40:31;8.73;;;6.07;;
71856;SDS011;59712;46.980;28.882;2022-08-30T13:43:02;9.02;;;6.13;;
71856;SDS011;59712;46.980;28.882;2022-08-30T13:45:33;10.73;;;5.80;;
71856;SDS011;59712;46.980;28.882;2022-08-30T13:48:09;14.02;;;6.68;;
71856;SDS011;59712;46.980;28.882;2022-08-30T13:50:39;11.45;;;6.70;;
71856;SDS011;59712;46.980;28.882;2022-08-30T13:53:06;13.13;;;6.60;;
71856;SDS011;59712;46.980;28.882;2022-08-30T13:55:37;12.75;;;7.13;;
71856;SDS011;59712;46.980;28.882;2022-08-30T13:58:06;10.40;;;6.80;;
71856;SDS011;59712;46.980;28.882;2022-08-30T14:00:35;9.65;;;6.03;;
71856;SDS011;59712;46.980;28.882;2022-08-30T14:03:04;8.95;;;5.57;;
71856;SDS011;59712;46.980;28.882;2022-08-30T14:05:34;12.23;;;6.65;;
71856;SDS011;59712;46.980;28.882;2022-08-30T14:08:21;11.95;;;6.50;;
71856;SDS011;59712;46.980;28.882;2022-08-30T14:11:17;8.98;;;5.97;;
71856;SDS011;59712;46.980;28.882;2022-08-30T14:13:49;11.98;;;6.15;;
71856;SDS011;59712;46.980;28.882;2022-08-30T14:16:41;11.15;;;6.35;;
71856;SDS011;59712;46.980;28.882;2022-08-30T14:19:10;8.90;;;6.28;;
71856;SDS011;59712;46.980;28.882;2022-08-30T14:21:41;12.75;;;5.95;;
71856;SDS011;59712;46.980;28.882;2022-08-30T14:24:16;9.73;;;6.20;;
71856;SDS011;59712;46.980;28.882;2022-08-30T14:26:49;9.32;;;6.05;;
71856;SDS011;59712;46.980;28.882;2022-08-30T14:29:23;10.80;;;6.45;;
71856;SDS011;59712;46.980;28.882;2022-08-30T14:32:11;11.68;;;5.78;;
71856;SDS011;59712;46.980;28.882;2022-08-30T14:34:39;9.85;;;6.00;;
71856;SDS011;59712;46.980;28.882;2022-08-30T14:37:13;12.88;;;6.55;;
71856;SDS011;59712;46.980;28.882;2022-08-30T14:39:45;10.20;;;6.88;;
71856;SDS011;59712;46.980;28.882;2022-08-30T14:42:13;10.15;;;6.65;;
71856;SDS011;59712;46.980;28.882;2022-08-30T14:44:44;10.02;;;6.22;;
71856;SDS011;59712;46.980;28.882;2022-08-30T14:47:22;10.48;;;6.28;;
71856;SDS011;59712;46.980;28.882;2022-08-30T14:49:55;10.85;;;6.03;;
71856;SDS011;59712;46.980;28.882;2022-08-30T14:52:27;10.38;;;6.85;;
71856;SDS011;59712;46.980;28.882;2022-08-30T14:54:56;11.18;;;6.60;;
71856;SDS011;59712;46.980;28.882;2022-08-30T14:57:35;10.65;;;6.30;;
71856;SDS011;59712;46.980;28.882;2022-08-30T15:00:05;10.63;;;6.13;;
71856;SDS011;59712;46.980;28.882;2022-08-30T15:02:35;9.73;;;6.35;;
71856;SDS011;59712;46.980;28.882;2022-08-30T15:05:02;11.57;;;7.03;;
71856;SDS011;59712;46.980;28.882;2022-08-30T15:07:37;12.27;;;6.60;;
71856;SDS011;59712;46.980;28.882;2022-08-30T15:10:16;7.93;;;5.88;;
71856;SDS011;59712;46.980;28.882;2022-08-30T15:12:46;11.65;;;6.22;;
71856;SDS011;59712;46.980;28.882;2022-08-30T15:15:17;9.10;;;5.70;;
71856;SDS011;59712;46.980;28.882;2022-08-30T15:18:20;11.10;;;5.22;;
71856;SDS011;59712;46.980;28.882;2022-08-30T15:20:55;10.90;;;6.45;;
71856;SDS011;59712;46.980;28.882;2022-08-30T15:23:22;11.85;;;7.38;;
71856;SDS011;59712;46.980;28.882;2022-08-30T15:25:51;11.25;;;6.75;;
71856;SDS011;59712;46.980;28.882;2022-08-30T15:28:18;10.65;;;6.63;;
71856;SDS011;59712;46.980;28.882;2022-08-30T15:30:48;14.23;;;6.60;;
71856;SDS011;59712;46.980;28.882;2022-08-30T15:33:24;17.33;;;7.70;;
71856;SDS011;59712;46.980;28.882;2022-08-30T15:35:53;14.20;;;6.55;;
71856;SDS011;59712;46.980;28.882;2022-08-30T15:38:27;9.88;;;7.10;;
71856;SDS011;59712;46.980;28.882;2022-08-30T15:40:56;13.45;;;7.35;;
71856;SDS011;59712;46.980;28.882;2022-08-30T15:43:31;10.57;;;6.03;;
71856;SDS011;59712;46.980;28.882;2022-08-30T15:46:13;12.40;;;6.55;;
71856;SDS011;59712;46.980;28.882;2022-08-30T15:48:41;9.88;;;5.85;;
71856;SDS011;59712;46.980;28.882;2022-08-30T15:51:14;15.93;;;7.82;;
71856;SDS011;59712;46.980;28.882;2022-08-30T15:53:47;11.52;;;7.00;;
71856;SDS011;59712;46.980;28.882;2022-08-30T15:56:18;17.15;;;8.13;;
71856;SDS011;59712;46.980;28.882;2022-08-30T15:58:45;17.08;;;7.60;;
71856;SDS011;59712;46.980;28.882;2022-08-30T16:01:14;17.58;;;8.00;;
71856;SDS011;59712;46.980;28.882;2022-08-30T16:03:45;21.02;;;7.70;;
71856;SDS011;59712;46.980;28.882;2022-08-30T16:06:15;17.20;;;9.85;;
71856;SDS011;59712;46.980;28.882;2022-08-30T16:08:54;16.00;;;7.97;;
71856;SDS011;59712;46.980;28.882;2022-08-30T16:11:26;21.55;;;10.15;;
71856;SDS011;59712;46.980;28.882;2022-08-30T16:13:55;24.08;;;9.77;;
71856;SDS011;59712;46.980;28.882;2022-08-30T16:16:22;13.93;;;8.13;;
71856;SDS011;59712;46.980;28.882;2022-08-30T16:18:51;16.33;;;7.47;;
71856;SDS011;59712;46.980;28.882;2022-08-30T16:21:22;17.45;;;7.88;;
71856;SDS011;59712;46.980;28.882;2022-08-30T16:23:56;14.82;;;8.82;;
71856;SDS011;59712;46.980;28.882;2022-08-30T16:26:25;17.00;;;8.15;;
71856;SDS011;59712;46.980;28.882;2022-08-30T16:28:58;14.13;;;8.68;;
71856;SDS011;59712;46.980;28.882;2022-08-30T16:31:27;15.40;;;7.85;;
71856;SDS011;59712;46.980;28.882;2022-08-30T16:33:56;16.55;;;7.63;;
71856;SDS011;59712;46.980;28.882;2022-08-30T16:36:30;18.05;;;8.50;;
71856;SDS011;59712;46.980;28.882;2022-08-30T16:38:58;16.42;;;8.35;;
71856;SDS011;59712;46.980;28.882;2022-08-30T16:41:26;16.02;;;6.65;;
71856;SDS011;59712;46.980;28.882;2022-08-30T16:46:23;14.55;;;5.22;;
71856;SDS011;59712;46.980;28.882;2022-08-30T16:48:54;9.32;;;4.72;;
71856;SDS011;59712;46.980;28.882;2022-08-30T16:51:27;12.38;;;5.10;;